sensor_id;sensor_type;location;lat;lon;timestamp;P1;durP1;ratioP1;P2;durP2;ratioP2
4646;SDS011;2336;47.822;7.564;2022-11-14T00:00:23;17.80;;;15.23;;
4646;SDS011;2336;47.822;7.564;2022-11-14T00:02:51;15.40;;;13.80;;
4646;SDS011;2336;47.822;7.564;2022-11-14T00:05:19;18.17;;;15.57;;
4646;SDS011;2336;47.822;7.564;2022-11-14T00:07:47;17.73;;;14.63;;
4646;SDS011;2336;47.822;7.564;2022-11-14T00:10:15;19.30;;;15.43;;
4646;SDS011;2336;47.822;7.564;2022-11-14T00:12:42;16.63;;;14.57;;
4646;SDS011;2336;47.822;7.564;2022-11-14T00:15:09;20.77;;;16.47;;
4646;SDS011;2336;47.822;7.564;2022-11-14T00:17:37;15.47;;;13.87;;
4646;SDS011;2336;47.822;7.564;2022-11-14T00:20:05;18.87;;;14.80;;
4646;SDS011;2336;47.822;7.564;2022-11-14T00:22:33;15.20;;;13.60;;
4646;SDS011;2336;47.822;7.564;2022-11-14T00:25:01;15.40;;;13.70;;
4646;SDS011;2336;47.822;7.564;2022-11-14T00:27:28;15.03;;;13.07;;
4646;SDS011;2336;47.822;7.564;2022-11-14T00:29:55;16.07;;;14.20;;
4646;SDS011;2336;47.822;7.564;2022-11-14T00:32:22;17.47;;;15.00;;
4646;SDS011;2336;47.822;7.564;2022-11-14T00:34:49;15.73;;;13.83;;
4646;SDS011;2336;47.822;7.564;2022-11-14T00:37:16;14.70;;;13.13;;
4646;SDS011;2336;47.822;7.564;2022-11-14T00:39:43;17.90;;;13.20;;
4646;SDS011;2336;47.822;7.564;2022-11-14T00:42:11;14.80;;;13.20;;
4646;SDS011;2336;47.822;7.564;2022-11-14T00:44:38;15.50;;;13.90;;
4646;SDS011;2336;47.822;7.564;2022-11-14T00:47:04;16.27;;;13.20;;
4646;SDS011;2336;47.822;7.564;2022-11-14T00:49:31;19.53;;;16.30;;
4646;SDS011;2336;47.822;7.564;2022-11-14T00:51:58;18.30;;;14.60;;
4646;SDS011;2336;47.822;7.564;2022-11-14T00:54:25;19.40;;;15.67;;
4646;SDS011;2336;47.822;7.564;2022-11-14T00:56:52;23.00;;;17.60;;
4646;SDS011;2336;47.822;7.564;2022-11-14T00:59:20;20.00;;;17.27;;
4646;SDS011;2336;47.822;7.564;2022-11-14T01:01:47;21.03;;;16.17;;
4646;SDS011;2336;47.822;7.564;2022-11-14T01:04:13;17.80;;;15.83;;
4646;SDS011;2336;47.822;7.564;2022-11-14T01:06:40;19.10;;;14.83;;
4646;SDS011;2336;47.822;7.564;2022-11-14T01:09:07;21.27;;;15.70;;
4646;SDS011;2336;47.822;7.564;2022-11-14T01:11:34;20.30;;;14.60;;
4646;SDS011;2336;47.822;7.564;2022-11-14T01:14:01;20.00;;;15.13;;
4646;SDS011;2336;47.822;7.564;2022-11-14T01:16:32;20.70;;;16.47;;
4646;SDS011;2336;47.822;7.564;2022-11-14T01:18:59;22.60;;;15.23;;
4646;SDS011;2336;47.822;7.564;2022-11-14T01:21:26;19.93;;;14.57;;
4646;SDS011;2336;47.822;7.564;2022-11-14T01:23:53;19.13;;;14.53;;
4646;SDS011;2336;47.822;7.564;2022-11-14T01:26:20;22.37;;;15.33;;
4646;SDS011;2336;47.822;7.564;2022-11-14T01:28:47;21.80;;;15.50;;
4646;SDS011;2336;47.822;7.564;2022-11-14T01:31:14;21.97;;;17.40;;
4646;SDS011;2336;47.822;7.564;2022-11-14T01:33:45;23.13;;;16.57;;
4646;SDS011;2336;47.822;7.564;2022-11-14T01:36:13;21.57;;;15.10;;
4646;SDS011;2336;47.822;7.564;2022-11-14T01:38:40;22.60;;;15.27;;
4646;SDS011;2336;47.822;7.564;2022-11-14T01:41:08;20.10;;;15.63;;
4646;SDS011;2336;47.822;7.564;2022-11-14T01:43:38;17.70;;;14.90;;
4646;SDS011;2336;47.822;7.564;2022-11-14T01:46:06;20.50;;;14.53;;
4646;SDS011;2336;47.822;7.564;2022-11-14T01:48:39;24.73;;;16.80;;
4646;SDS011;2336;47.822;7.564;2022-11-14T01:51:14;18.80;;;15.40;;
4646;SDS011;2336;47.822;7.564;2022-11-14T01:53:44;22.17;;;16.00;;
4646;SDS011;2336;47.822;7.564;2022-11-14T01:56:13;16.57;;;14.30;;
4646;SDS011;2336;47.822;7.564;2022-11-14T01:58:43;22.50;;;15.83;;
4646;SDS011;2336;47.822;7.564;2022-11-14T02:01:14;18.57;;;14.53;;
4646;SDS011;2336;47.822;7.564;2022-11-14T02:03:41;24.47;;;18.37;;
4646;SDS011;2336;47.822;7.564;2022-11-14T02:06:13;16.13;;;13.23;;
4646;SDS011;2336;47.822;7.564;2022-11-14T02:08:43;21.30;;;15.13;;
4646;SDS011;2336;47.822;7.564;2022-11-14T02:11:11;19.67;;;16.13;;
4646;SDS011;2336;47.822;7.564;2022-11-14T02:13:38;21.43;;;14.70;;
4646;SDS011;2336;47.822;7.564;2022-11-14T02:16:05;36.03;;;21.40;;
4646;SDS011;2336;47.822;7.564;2022-11-14T02:18:31;33.13;;;25.73;;
4646;SDS011;2336;47.822;7.564;2022-11-14T02:21:00;24.17;;;18.47;;
4646;SDS011;2336;47.822;7.564;2022-11-14T02:23:27;20.67;;;15.10;;
4646;SDS011;2336;47.822;7.564;2022-11-14T02:25:55;16.03;;;13.50;;
4646;SDS011;2336;47.822;7.564;2022-11-14T02:28:23;22.40;;;14.73;;
4646;SDS011;2336;47.822;7.564;2022-11-14T02:30:50;15.70;;;13.53;;
4646;SDS011;2336;47.822;7.564;2022-11-14T02:33:17;14.77;;;13.13;;
4646;SDS011;2336;47.822;7.564;2022-11-14T02:35:43;18.10;;;13.57;;
4646;SDS011;2336;47.822;7.564;2022-11-14T02:38:11;15.57;;;12.77;;
4646;SDS011;2336;47.822;7.564;2022-11-14T02:40:38;12.77;;;11.40;;
4646;SDS011;2336;47.822;7.564;2022-11-14T02:43:05;13.70;;;12.10;;
4646;SDS011;2336;47.822;7.564;2022-11-14T02:45:32;18.63;;;11.53;;
4646;SDS011;2336;47.822;7.564;2022-11-14T02:47:58;15.07;;;12.30;;
4646;SDS011;2336;47.822;7.564;2022-11-14T02:50:25;12.77;;;11.33;;
4646;SDS011;2336;47.822;7.564;2022-11-14T02:52:52;13.53;;;11.50;;
4646;SDS011;2336;47.822;7.564;2022-11-14T02:55:21;11.83;;;10.50;;
4646;SDS011;2336;47.822;7.564;2022-11-14T02:57:47;12.60;;;10.80;;
4646;SDS011;2336;47.822;7.564;2022-11-14T03:00:15;12.63;;;10.73;;
4646;SDS011;2336;47.822;7.564;2022-11-14T03:02:42;11.27;;;10.10;;
4646;SDS011;2336;47.822;7.564;2022-11-14T03:05:09;11.17;;;9.97;;
4646;SDS011;2336;47.822;7.564;2022-11-14T03:07:36;12.40;;;10.87;;
4646;SDS011;2336;47.822;7.564;2022-11-14T03:10:03;11.00;;;9.87;;
4646;SDS011;2336;47.822;7.564;2022-11-14T03:14:59;10.57;;;9.57;;
4646;SDS011;2336;47.822;7.564;2022-11-14T03:17:29;10.50;;;9.50;;
4646;SDS011;2336;47.822;7.564;2022-11-14T03:19:56;10.50;;;9.60;;
4646;SDS011;2336;47.822;7.564;2022-11-14T03:22:23;8.23;;;7.53;;
4646;SDS011;2336;47.822;7.564;2022-11-14T03:24:50;9.70;;;8.80;;
4646;SDS011;2336;47.822;7.564;2022-11-14T03:27:16;9.67;;;8.80;;
4646;SDS011;2336;47.822;7.564;2022-11-14T03:29:45;11.80;;;10.00;;
4646;SDS011;2336;47.822;7.564;2022-11-14T03:32:11;11.13;;;10.03;;
4646;SDS011;2336;47.822;7.564;2022-11-14T03:34:38;10.17;;;8.80;;
4646;SDS011;2336;47.822;7.564;2022-11-14T03:37:05;9.50;;;8.30;;
4646;SDS011;2336;47.822;7.564;2022-11-14T03:39:32;9.43;;;8.53;;
4646;SDS011;2336;47.822;7.564;2022-11-14T03:41:58;16.23;;;14.67;;
4646;SDS011;2336;47.822;7.564;2022-11-14T03:44:25;9.80;;;8.90;;
4646;SDS011;2336;47.822;7.564;2022-11-14T03:46:53;8.07;;;7.37;;
4646;SDS011;2336;47.822;7.564;2022-11-14T03:49:20;7.50;;;6.90;;
4646;SDS011;2336;47.822;7.564;2022-11-14T03:51:47;8.73;;;7.97;;
4646;SDS011;2336;47.822;7.564;2022-11-14T03:54:14;8.67;;;7.93;;
4646;SDS011;2336;47.822;7.564;2022-11-14T03:56:41;9.83;;;8.93;;
4646;SDS011;2336;47.822;7.564;2022-11-14T03:59:08;9.93;;;9.03;;
4646;SDS011;2336;47.822;7.564;2022-11-14T04:01:34;8.53;;;7.80;;
4646;SDS011;2336;47.822;7.564;2022-11-14T04:04:02;6.73;;;6.17;;
4646;SDS011;2336;47.822;7.564;2022-11-14T04:06:29;6.47;;;5.97;;
4646;SDS011;2336;47.822;7.564;2022-11-14T04:08:56;6.70;;;6.20;;
4646;SDS011;2336;47.822;7.564;2022-11-14T04:11:24;6.30;;;5.83;;
4646;SDS011;2336;47.822;7.564;2022-11-14T04:13:50;7.03;;;6.57;;
4646;SDS011;2336;47.822;7.564;2022-11-14T04:16:17;6.40;;;6.00;;
4646;SDS011;2336;47.822;7.564;2022-11-14T04:18:44;6.33;;;5.93;;
4646;SDS011;2336;47.822;7.564;2022-11-14T04:21:12;6.27;;;5.87;;
4646;SDS011;2336;47.822;7.564;2022-11-14T04:23:38;6.20;;;5.80;;
4646;SDS011;2336;47.822;7.564;2022-11-14T04:26:05;6.40;;;6.00;;
4646;SDS011;2336;47.822;7.564;2022-11-14T04:28:32;6.90;;;6.43;;
4646;SDS011;2336;47.822;7.564;2022-11-14T04:30:59;6.57;;;6.20;;
4646;SDS011;2336;47.822;7.564;2022-11-14T04:33:26;5.10;;;4.90;;
4646;SDS011;2336;47.822;7.564;2022-11-14T04:35:52;6.53;;;6.13;;
4646;SDS011;2336;47.822;7.564;2022-11-14T04:38:21;6.70;;;6.10;;
4646;SDS011;2336;47.822;7.564;2022-11-14T04:40:48;7.17;;;6.57;;
4646;SDS011;2336;47.822;7.564;2022-11-14T04:43:15;5.50;;;5.30;;
4646;SDS011;2336;47.822;7.564;2022-11-14T04:45:42;6.17;;;5.77;;
4646;SDS011;2336;47.822;7.564;2022-11-14T04:48:09;6.47;;;6.07;;
4646;SDS011;2336;47.822;7.564;2022-11-14T04:50:36;6.10;;;5.77;;
4646;SDS011;2336;47.822;7.564;2022-11-14T04:53:02;6.23;;;5.87;;
4646;SDS011;2336;47.822;7.564;2022-11-14T04:55:30;5.27;;;5.07;;
4646;SDS011;2336;47.822;7.564;2022-11-14T04:57:57;5.27;;;4.90;;
4646;SDS011;2336;47.822;7.564;2022-11-14T05:00:24;5.87;;;5.57;;
4646;SDS011;2336;47.822;7.564;2022-11-14T05:02:51;5.80;;;5.50;;
4646;SDS011;2336;47.822;7.564;2022-11-14T05:05:18;5.83;;;5.30;;
4646;SDS011;2336;47.822;7.564;2022-11-14T05:07:45;6.27;;;5.83;;
4646;SDS011;2336;47.822;7.564;2022-11-14T05:10:12;7.43;;;6.93;;
4646;SDS011;2336;47.822;7.564;2022-11-14T05:12:40;7.10;;;6.70;;
4646;SDS011;2336;47.822;7.564;2022-11-14T05:15:07;7.23;;;6.70;;
4646;SDS011;2336;47.822;7.564;2022-11-14T05:17:34;8.63;;;7.93;;
4646;SDS011;2336;47.822;7.564;2022-11-14T05:20:01;8.60;;;8.00;;
4646;SDS011;2336;47.822;7.564;2022-11-14T05:22:28;8.57;;;7.80;;
4646;SDS011;2336;47.822;7.564;2022-11-14T05:24:55;8.80;;;8.10;;
4646;SDS011;2336;47.822;7.564;2022-11-14T05:27:22;7.77;;;7.20;;
4646;SDS011;2336;47.822;7.564;2022-11-14T05:29:50;7.87;;;7.27;;
4646;SDS011;2336;47.822;7.564;2022-11-14T05:32:17;6.47;;;6.07;;
4646;SDS011;2336;47.822;7.564;2022-11-14T05:34:43;5.63;;;5.33;;
4646;SDS011;2336;47.822;7.564;2022-11-14T05:37:10;6.20;;;5.90;;
4646;SDS011;2336;47.822;7.564;2022-11-14T05:39:37;6.40;;;6.10;;
4646;SDS011;2336;47.822;7.564;2022-11-14T05:42:04;6.30;;;5.90;;
4646;SDS011;2336;47.822;7.564;2022-11-14T05:44:31;6.80;;;6.30;;
4646;SDS011;2336;47.822;7.564;2022-11-14T05:46:59;6.40;;;5.90;;
4646;SDS011;2336;47.822;7.564;2022-11-14T05:49:26;7.33;;;6.87;;
4646;SDS011;2336;47.822;7.564;2022-11-14T05:51:52;9.33;;;8.63;;
4646;SDS011;2336;47.822;7.564;2022-11-14T05:54:19;9.00;;;8.30;;
4646;SDS011;2336;47.822;7.564;2022-11-14T05:56:46;8.93;;;8.33;;
4646;SDS011;2336;47.822;7.564;2022-11-14T05:59:13;7.20;;;6.60;;
4646;SDS011;2336;47.822;7.564;2022-11-14T06:01:39;5.73;;;5.33;;
4646;SDS011;2336;47.822;7.564;2022-11-14T06:04:07;5.83;;;5.43;;
4646;SDS011;2336;47.822;7.564;2022-11-14T06:06:34;5.17;;;4.87;;
4646;SDS011;2336;47.822;7.564;2022-11-14T06:09:01;6.60;;;6.20;;
4646;SDS011;2336;47.822;7.564;2022-11-14T06:11:28;6.47;;;5.97;;
4646;SDS011;2336;47.822;7.564;2022-11-14T06:13:54;5.57;;;5.23;;
4646;SDS011;2336;47.822;7.564;2022-11-14T06:16:21;5.63;;;5.33;;
4646;SDS011;2336;47.822;7.564;2022-11-14T06:18:48;5.60;;;5.20;;
4646;SDS011;2336;47.822;7.564;2022-11-14T06:21:19;5.27;;;4.80;;
4646;SDS011;2336;47.822;7.564;2022-11-14T06:23:47;5.43;;;5.00;;
4646;SDS011;2336;47.822;7.564;2022-11-14T06:26:18;5.57;;;5.30;;
4646;SDS011;2336;47.822;7.564;2022-11-14T06:28:46;6.53;;;6.03;;
4646;SDS011;2336;47.822;7.564;2022-11-14T06:31:13;8.07;;;7.47;;
4646;SDS011;2336;47.822;7.564;2022-11-14T06:33:41;7.10;;;6.60;;
4646;SDS011;2336;47.822;7.564;2022-11-14T06:36:08;5.90;;;5.50;;
4646;SDS011;2336;47.822;7.564;2022-11-14T06:38:37;6.30;;;5.80;;
4646;SDS011;2336;47.822;7.564;2022-11-14T06:41:05;6.97;;;5.10;;
4646;SDS011;2336;47.822;7.564;2022-11-14T06:43:33;6.17;;;5.27;;
4646;SDS011;2336;47.822;7.564;2022-11-14T06:46:01;4.87;;;4.60;;
4646;SDS011;2336;47.822;7.564;2022-11-14T06:48:28;5.30;;;5.10;;
4646;SDS011;2336;47.822;7.564;2022-11-14T06:50:56;5.70;;;5.40;;
4646;SDS011;2336;47.822;7.564;2022-11-14T06:53:25;6.07;;;5.57;;
4646;SDS011;2336;47.822;7.564;2022-11-14T06:55:55;5.97;;;5.60;;
4646;SDS011;2336;47.822;7.564;2022-11-14T06:58:27;5.90;;;5.50;;
4646;SDS011;2336;47.822;7.564;2022-11-14T07:00:55;6.17;;;5.77;;
4646;SDS011;2336;47.822;7.564;2022-11-14T07:03:22;5.70;;;5.27;;
4646;SDS011;2336;47.822;7.564;2022-11-14T07:05:48;5.23;;;4.90;;
4646;SDS011;2336;47.822;7.564;2022-11-14T07:08:15;4.30;;;4.10;;
4646;SDS011;2336;47.822;7.564;2022-11-14T07:10:42;4.83;;;4.53;;
4646;SDS011;2336;47.822;7.564;2022-11-14T07:13:10;5.20;;;4.90;;
4646;SDS011;2336;47.822;7.564;2022-11-14T07:15:37;5.00;;;4.70;;
4646;SDS011;2336;47.822;7.564;2022-11-14T07:18:03;5.20;;;4.90;;
4646;SDS011;2336;47.822;7.564;2022-11-14T07:20:30;4.90;;;4.60;;
4646;SDS011;2336;47.822;7.564;2022-11-14T07:22:57;4.33;;;4.13;;
4646;SDS011;2336;47.822;7.564;2022-11-14T07:25:24;5.30;;;5.00;;
4646;SDS011;2336;47.822;7.564;2022-11-14T07:27:51;4.43;;;4.23;;
4646;SDS011;2336;47.822;7.564;2022-11-14T07:30:19;5.17;;;4.87;;
4646;SDS011;2336;47.822;7.564;2022-11-14T07:32:45;5.90;;;5.50;;
4646;SDS011;2336;47.822;7.564;2022-11-14T07:35:19;5.87;;;5.40;;
4646;SDS011;2336;47.822;7.564;2022-11-14T07:37:46;6.20;;;5.80;;
4646;SDS011;2336;47.822;7.564;2022-11-14T07:40:12;7.87;;;7.10;;
4646;SDS011;2336;47.822;7.564;2022-11-14T07:42:39;8.90;;;8.10;;
4646;SDS011;2336;47.822;7.564;2022-11-14T07:45:07;8.43;;;7.77;;
4646;SDS011;2336;47.822;7.564;2022-11-14T07:47:35;7.20;;;6.70;;
4646;SDS011;2336;47.822;7.564;2022-11-14T07:50:02;7.83;;;7.23;;
4646;SDS011;2336;47.822;7.564;2022-11-14T07:52:29;8.57;;;7.77;;
4646;SDS011;2336;47.822;7.564;2022-11-14T07:54:56;10.83;;;9.90;;
4646;SDS011;2336;47.822;7.564;2022-11-14T07:57:23;9.23;;;8.43;;
4646;SDS011;2336;47.822;7.564;2022-11-14T07:59:49;8.80;;;8.00;;
4646;SDS011;2336;47.822;7.564;2022-11-14T08:02:16;10.10;;;9.27;;
4646;SDS011;2336;47.822;7.564;2022-11-14T08:04:44;11.57;;;9.50;;
4646;SDS011;2336;47.822;7.564;2022-11-14T08:07:11;8.53;;;7.93;;
4646;SDS011;2336;47.822;7.564;2022-11-14T08:09:38;8.30;;;7.63;;
4646;SDS011;2336;47.822;7.564;2022-11-14T08:12:05;8.00;;;7.23;;
4646;SDS011;2336;47.822;7.564;2022-11-14T08:14:31;7.47;;;6.97;;
4646;SDS011;2336;47.822;7.564;2022-11-14T08:16:58;6.70;;;6.30;;
4646;SDS011;2336;47.822;7.564;2022-11-14T08:19:25;7.73;;;7.17;;
4646;SDS011;2336;47.822;7.564;2022-11-14T08:21:53;8.60;;;7.80;;
4646;SDS011;2336;47.822;7.564;2022-11-14T08:24:20;10.10;;;8.40;;
4646;SDS011;2336;47.822;7.564;2022-11-14T08:26:46;7.43;;;6.83;;
4646;SDS011;2336;47.822;7.564;2022-11-14T08:29:13;10.23;;;9.40;;
4646;SDS011;2336;47.822;7.564;2022-11-14T08:31:40;14.37;;;13.10;;
4646;SDS011;2336;47.822;7.564;2022-11-14T08:34:07;7.97;;;7.37;;
4646;SDS011;2336;47.822;7.564;2022-11-14T08:36:33;6.63;;;6.23;;
4646;SDS011;2336;47.822;7.564;2022-11-14T08:39:02;7.40;;;6.90;;
4646;SDS011;2336;47.822;7.564;2022-11-14T08:41:28;6.73;;;6.23;;
4646;SDS011;2336;47.822;7.564;2022-11-14T08:43:55;17.30;;;15.57;;
4646;SDS011;2336;47.822;7.564;2022-11-14T08:46:22;13.33;;;12.00;;
4646;SDS011;2336;47.822;7.564;2022-11-14T08:48:49;11.10;;;10.10;;
4646;SDS011;2336;47.822;7.564;2022-11-14T08:51:15;8.90;;;7.57;;
4646;SDS011;2336;47.822;7.564;2022-11-14T08:53:42;8.80;;;8.10;;
4646;SDS011;2336;47.822;7.564;2022-11-14T08:56:10;7.70;;;7.10;;
4646;SDS011;2336;47.822;7.564;2022-11-14T08:58:37;6.90;;;6.40;;
4646;SDS011;2336;47.822;7.564;2022-11-14T09:01:05;6.77;;;6.27;;
4646;SDS011;2336;47.822;7.564;2022-11-14T09:03:32;8.10;;;6.73;;
4646;SDS011;2336;47.822;7.564;2022-11-14T09:05:59;8.20;;;7.50;;
4646;SDS011;2336;47.822;7.564;2022-11-14T09:08:26;8.13;;;7.47;;
4646;SDS011;2336;47.822;7.564;2022-11-14T09:10:53;8.37;;;7.60;;
4646;SDS011;2336;47.822;7.564;2022-11-14T09:13:22;7.27;;;6.77;;
4646;SDS011;2336;47.822;7.564;2022-11-14T09:15:48;7.43;;;6.93;;
4646;SDS011;2336;47.822;7.564;2022-11-14T09:18:15;7.43;;;6.93;;
4646;SDS011;2336;47.822;7.564;2022-11-14T09:20:42;8.17;;;7.47;;
4646;SDS011;2336;47.822;7.564;2022-11-14T09:23:09;8.37;;;7.60;;
4646;SDS011;2336;47.822;7.564;2022-11-14T09:25:36;9.47;;;7.10;;
4646;SDS011;2336;47.822;7.564;2022-11-14T09:28:03;7.97;;;7.43;;
4646;SDS011;2336;47.822;7.564;2022-11-14T09:30:32;8.40;;;7.63;;
4646;SDS011;2336;47.822;7.564;2022-11-14T09:32:59;7.90;;;6.40;;
4646;SDS011;2336;47.822;7.564;2022-11-14T09:35:27;8.10;;;7.50;;
4646;SDS011;2336;47.822;7.564;2022-11-14T09:38:00;9.70;;;8.70;;
4646;SDS011;2336;47.822;7.564;2022-11-14T09:40:28;14.17;;;12.67;;
4646;SDS011;2336;47.822;7.564;2022-11-14T09:43:06;14.23;;;11.87;;
4646;SDS011;2336;47.822;7.564;2022-11-14T09:45:42;13.40;;;12.00;;
4646;SDS011;2336;47.822;7.564;2022-11-14T09:48:15;15.77;;;12.20;;
4646;SDS011;2336;47.822;7.564;2022-11-14T09:50:47;12.30;;;9.40;;
4646;SDS011;2336;47.822;7.564;2022-11-14T09:53:20;14.17;;;9.10;;
4646;SDS011;2336;47.822;7.564;2022-11-14T09:55:52;7.93;;;7.33;;
4646;SDS011;2336;47.822;7.564;2022-11-14T09:58:19;7.70;;;6.40;;
4646;SDS011;2336;47.822;7.564;2022-11-14T10:00:49;6.13;;;5.73;;
4646;SDS011;2336;47.822;7.564;2022-11-14T10:03:22;4.60;;;4.20;;
4646;SDS011;2336;47.822;7.564;2022-11-14T10:08:52;8.50;;;7.77;;
4646;SDS011;2336;47.822;7.564;2022-11-14T10:11:28;7.30;;;6.20;;
4646;SDS011;2336;47.822;7.564;2022-11-14T10:14:17;6.73;;;6.23;;
4646;SDS011;2336;47.822;7.564;2022-11-14T10:17:06;6.70;;;6.20;;
4646;SDS011;2336;47.822;7.564;2022-11-14T10:19:45;4.00;;;3.80;;
4646;SDS011;2336;47.822;7.564;2022-11-14T10:22:21;4.03;;;3.83;;
4646;SDS011;2336;47.822;7.564;2022-11-14T10:25:11;6.17;;;4.47;;
4646;SDS011;2336;47.822;7.564;2022-11-14T10:27:53;8.00;;;7.20;;
4646;SDS011;2336;47.822;7.564;2022-11-14T10:30:29;8.17;;;7.33;;
4646;SDS011;2336;47.822;7.564;2022-11-14T10:33:09;8.30;;;6.60;;
4646;SDS011;2336;47.822;7.564;2022-11-14T10:35:44;7.00;;;5.50;;
4646;SDS011;2336;47.822;7.564;2022-11-14T10:38:18;12.67;;;7.60;;
4646;SDS011;2336;47.822;7.564;2022-11-14T10:40:51;5.30;;;4.77;;
4646;SDS011;2336;47.822;7.564;2022-11-14T10:43:22;9.73;;;7.93;;
4646;SDS011;2336;47.822;7.564;2022-11-14T10:45:53;3.60;;;3.30;;
4646;SDS011;2336;47.822;7.564;2022-11-14T10:48:29;8.20;;;3.53;;
4646;SDS011;2336;47.822;7.564;2022-11-14T10:50:58;7.70;;;7.10;;
4646;SDS011;2336;47.822;7.564;2022-11-14T10:53:35;3.50;;;3.20;;
4646;SDS011;2336;47.822;7.564;2022-11-14T10:56:10;4.07;;;3.77;;
4646;SDS011;2336;47.822;7.564;2022-11-14T10:58:38;3.93;;;3.70;;
4646;SDS011;2336;47.822;7.564;2022-11-14T11:04:19;4.20;;;3.93;;
4646;SDS011;2336;47.822;7.564;2022-11-14T11:06:51;3.97;;;3.60;;
4646;SDS011;2336;47.822;7.564;2022-11-14T11:09:20;5.00;;;3.00;;
4646;SDS011;2336;47.822;7.564;2022-11-14T11:12:06;4.30;;;3.90;;
4646;SDS011;2336;47.822;7.564;2022-11-14T11:14:34;2.97;;;2.87;;
4646;SDS011;2336;47.822;7.564;2022-11-14T11:19:50;4.53;;;4.33;;
4646;SDS011;2336;47.822;7.564;2022-11-14T11:22:28;3.80;;;3.57;;
4646;SDS011;2336;47.822;7.564;2022-11-14T11:24:56;3.90;;;3.60;;
4646;SDS011;2336;47.822;7.564;2022-11-14T11:27:23;6.43;;;4.73;;
4646;SDS011;2336;47.822;7.564;2022-11-14T11:30:02;7.40;;;6.70;;
4646;SDS011;2336;47.822;7.564;2022-11-14T11:32:31;5.00;;;4.00;;
4646;SDS011;2336;47.822;7.564;2022-11-14T11:35:01;4.93;;;4.53;;
4646;SDS011;2336;47.822;7.564;2022-11-14T11:37:35;6.23;;;5.83;;
4646;SDS011;2336;47.822;7.564;2022-11-14T11:40:05;5.40;;;5.00;;
4646;SDS011;2336;47.822;7.564;2022-11-14T11:42:39;5.50;;;5.00;;
4646;SDS011;2336;47.822;7.564;2022-11-14T11:45:11;3.73;;;3.53;;
4646;SDS011;2336;47.822;7.564;2022-11-14T11:47:41;3.30;;;3.10;;
4646;SDS011;2336;47.822;7.564;2022-11-14T11:50:17;3.80;;;3.70;;
4646;SDS011;2336;47.822;7.564;2022-11-14T11:52:47;11.33;;;3.97;;
4646;SDS011;2336;47.822;7.564;2022-11-14T11:55:23;7.13;;;4.10;;
4646;SDS011;2336;47.822;7.564;2022-11-14T11:57:55;4.00;;;3.80;;
4646;SDS011;2336;47.822;7.564;2022-11-14T12:00:27;4.17;;;3.97;;
4646;SDS011;2336;47.822;7.564;2022-11-14T12:02:55;3.70;;;3.50;;
4646;SDS011;2336;47.822;7.564;2022-11-14T12:05:28;4.43;;;4.03;;
4646;SDS011;2336;47.822;7.564;2022-11-14T12:08:03;4.27;;;4.07;;
4646;SDS011;2336;47.822;7.564;2022-11-14T12:10:35;4.10;;;3.80;;
4646;SDS011;2336;47.822;7.564;2022-11-14T12:13:18;3.53;;;3.33;;
4646;SDS011;2336;47.822;7.564;2022-11-14T12:16:24;4.17;;;3.97;;
4646;SDS011;2336;47.822;7.564;2022-11-14T12:19:05;5.93;;;5.53;;
4646;SDS011;2336;47.822;7.564;2022-11-14T12:22:10;5.23;;;4.83;;
4646;SDS011;2336;47.822;7.564;2022-11-14T12:24:57;5.73;;;5.23;;
4646;SDS011;2336;47.822;7.564;2022-11-14T12:27:53;5.80;;;5.27;;
4646;SDS011;2336;47.822;7.564;2022-11-14T12:30:28;4.07;;;3.77;;
4646;SDS011;2336;47.822;7.564;2022-11-14T12:32:57;6.57;;;5.50;;
4646;SDS011;2336;47.822;7.564;2022-11-14T12:35:27;8.87;;;8.07;;
4646;SDS011;2336;47.822;7.564;2022-11-14T12:37:58;3.93;;;3.63;;
4646;SDS011;2336;47.822;7.564;2022-11-14T12:40:28;3.17;;;2.97;;
4646;SDS011;2336;47.822;7.564;2022-11-14T12:42:57;4.33;;;4.13;;
4646;SDS011;2336;47.822;7.564;2022-11-14T12:48:33;3.10;;;2.90;;
4646;SDS011;2336;47.822;7.564;2022-11-14T12:51:02;3.10;;;2.90;;
4646;SDS011;2336;47.822;7.564;2022-11-14T12:53:39;3.60;;;3.40;;
4646;SDS011;2336;47.822;7.564;2022-11-14T12:56:11;7.23;;;6.30;;
4646;SDS011;2336;47.822;7.564;2022-11-14T12:58:55;3.57;;;3.37;;
4646;SDS011;2336;47.822;7.564;2022-11-14T13:01:44;3.67;;;3.47;;
4646;SDS011;2336;47.822;7.564;2022-11-14T13:04:23;3.67;;;3.43;;
4646;SDS011;2336;47.822;7.564;2022-11-14T13:07:12;4.00;;;3.80;;
4646;SDS011;2336;47.822;7.564;2022-11-14T13:09:56;5.40;;;4.87;;
4646;SDS011;2336;47.822;7.564;2022-11-14T13:12:29;4.90;;;4.50;;
4646;SDS011;2336;47.822;7.564;2022-11-14T13:15:24;14.73;;;10.03;;
4646;SDS011;2336;47.822;7.564;2022-11-14T13:18:14;4.50;;;4.20;;
4646;SDS011;2336;47.822;7.564;2022-11-14T13:21:04;26.10;;;17.97;;
4646;SDS011;2336;47.822;7.564;2022-11-14T13:23:58;41.83;;;28.40;;
4646;SDS011;2336;47.822;7.564;2022-11-14T13:26:39;21.03;;;18.50;;
4646;SDS011;2336;47.822;7.564;2022-11-14T13:35:47;5.37;;;4.80;;
4646;SDS011;2336;47.822;7.564;2022-11-14T13:38:28;4.13;;;3.83;;
4646;SDS011;2336;47.822;7.564;2022-11-14T13:41:35;3.30;;;3.17;;
4646;SDS011;2336;47.822;7.564;2022-11-14T13:50:44;3.20;;;3.00;;
4646;SDS011;2336;47.822;7.564;2022-11-14T13:53:16;3.70;;;3.40;;
4646;SDS011;2336;47.822;7.564;2022-11-14T13:55:59;3.67;;;3.37;;
4646;SDS011;2336;47.822;7.564;2022-11-14T13:58:35;3.80;;;3.50;;
4646;SDS011;2336;47.822;7.564;2022-11-14T14:01:17;6.27;;;3.47;;
4646;SDS011;2336;47.822;7.564;2022-11-14T14:03:57;3.43;;;3.13;;
4646;SDS011;2336;47.822;7.564;2022-11-14T14:06:48;3.37;;;3.10;;
4646;SDS011;2336;47.822;7.564;2022-11-14T14:09:24;4.63;;;3.00;;
4646;SDS011;2336;47.822;7.564;2022-11-14T14:15:03;5.53;;;4.30;;
4646;SDS011;2336;47.822;7.564;2022-11-14T14:17:46;3.43;;;3.13;;
4646;SDS011;2336;47.822;7.564;2022-11-14T14:20:24;3.80;;;3.30;;
4646;SDS011;2336;47.822;7.564;2022-11-14T14:22:58;2.90;;;2.80;;
4646;SDS011;2336;47.822;7.564;2022-11-14T14:25:34;4.83;;;2.50;;
4646;SDS011;2336;47.822;7.564;2022-11-14T14:28:10;2.53;;;2.43;;
4646;SDS011;2336;47.822;7.564;2022-11-14T14:31:01;2.80;;;2.60;;
4646;SDS011;2336;47.822;7.564;2022-11-14T14:33:39;2.77;;;2.63;;
4646;SDS011;2336;47.822;7.564;2022-11-14T14:36:15;3.00;;;2.80;;
4646;SDS011;2336;47.822;7.564;2022-11-14T14:38:43;3.07;;;2.97;;
4646;SDS011;2336;47.822;7.564;2022-11-14T14:41:11;3.93;;;3.50;;
4646;SDS011;2336;47.822;7.564;2022-11-14T14:43:40;3.40;;;3.03;;
4646;SDS011;2336;47.822;7.564;2022-11-14T14:46:09;2.37;;;2.27;;
4646;SDS011;2336;47.822;7.564;2022-11-14T14:48:39;3.03;;;2.83;;
4646;SDS011;2336;47.822;7.564;2022-11-14T14:51:11;2.57;;;2.40;;
4646;SDS011;2336;47.822;7.564;2022-11-14T14:53:39;2.87;;;2.60;;
4646;SDS011;2336;47.822;7.564;2022-11-14T14:56:18;5.43;;;2.50;;
4646;SDS011;2336;47.822;7.564;2022-11-14T14:58:48;3.83;;;3.63;;
4646;SDS011;2336;47.822;7.564;2022-11-14T15:01:15;4.27;;;4.07;;
4646;SDS011;2336;47.822;7.564;2022-11-14T15:03:46;3.20;;;3.00;;
4646;SDS011;2336;47.822;7.564;2022-11-14T15:06:19;3.60;;;3.40;;
4646;SDS011;2336;47.822;7.564;2022-11-14T15:08:53;4.20;;;3.80;;
4646;SDS011;2336;47.822;7.564;2022-11-14T15:11:22;4.03;;;3.80;;
4646;SDS011;2336;47.822;7.564;2022-11-14T15:13:51;2.97;;;2.80;;
4646;SDS011;2336;47.822;7.564;2022-11-14T15:16:20;4.47;;;4.17;;
4646;SDS011;2336;47.822;7.564;2022-11-14T15:18:49;6.10;;;5.53;;
4646;SDS011;2336;47.822;7.564;2022-11-14T15:21:22;10.50;;;9.40;;
4646;SDS011;2336;47.822;7.564;2022-11-14T15:23:59;6.37;;;5.47;;
4646;SDS011;2336;47.822;7.564;2022-11-14T15:26:28;5.63;;;5.07;;
4646;SDS011;2336;47.822;7.564;2022-11-14T15:29:06;12.60;;;8.17;;
4646;SDS011;2336;47.822;7.564;2022-11-14T15:31:42;11.93;;;8.40;;
4646;SDS011;2336;47.822;7.564;2022-11-14T15:34:21;8.57;;;7.53;;
4646;SDS011;2336;47.822;7.564;2022-11-14T15:39:47;3.97;;;3.47;;
4646;SDS011;2336;47.822;7.564;2022-11-14T15:42:15;3.60;;;2.90;;
4646;SDS011;2336;47.822;7.564;2022-11-14T15:44:45;2.23;;;2.03;;
4646;SDS011;2336;47.822;7.564;2022-11-14T15:47:17;2.40;;;1.50;;
4646;SDS011;2336;47.822;7.564;2022-11-14T15:49:56;2.00;;;2.00;;
4646;SDS011;2336;47.822;7.564;2022-11-14T15:52:26;1.93;;;1.83;;
4646;SDS011;2336;47.822;7.564;2022-11-14T15:57:53;2.33;;;2.10;;
4646;SDS011;2336;47.822;7.564;2022-11-14T16:00:20;3.13;;;3.03;;
4646;SDS011;2336;47.822;7.564;2022-11-14T16:02:48;3.70;;;3.47;;